Latest Weather Observations for Cape Otway

IDV60801

Issued at 9:35 pm EDT Sunday 23 November 2014 (issued every 30 minutes, with the page automatically refreshed every 10 minutes)

About weather observations | Map of weather stations | Latest weather observations for VIC | Other Formats
Station Details ID: 090015 Name: CAPE OTWAY LIGHTHOUSE Lat: -38.86 Lon: 143.51 Height: 82.0 m
Data from the previous 72 hours. | See also: Recent months at Cape Otway
Date/Time
EDT
Temp
°C
App
Temp
°C
Dew
Point
Rel
Hum
%
Delta-T
°C
Wind Press
QNH
hPa
Press
MSL
hPa
Rain
since 9 am
mm
Dir
 
Spd
km/h
Gust
km/h
Spd
kts
Gust
kts
23/09:30pm 14.0 10.9 10.2 78 2.0 NNE 17 22 9 12 1013.1 - 0.0
23/09:00pm 14.4 11.7 11.6 83 1.5 NE 17 20 9 11 1012.9 1013.0 0.0
23/08:30pm 14.7 12.4 11.7 82 1.6 ENE 15 22 8 12 1013.3 - 0.0
23/08:00pm 15.0 13.1 11.9 82 1.7 ENE 13 24 7 13 1012.6 - 0.0
23/07:30pm 15.5 14.8 12.0 79 1.9 E 7 11 4 6 1012.8 - 0.0
23/07:00pm 15.7 15.4 11.6 76 2.2 SE 4 7 2 4 1013.0 - 0.0
23/06:30pm 16.2 16.4 12.0 76 2.3 SSE 2 7 1 4 1013.1 - 0.0
23/06:00pm 16.2 15.7 12.0 76 2.3 WSW 6 9 3 5 1013.1 1013.1 0.0
23/05:30pm 16.3 15.6 12.1 76 2.3 WSW 7 11 4 6 1013.2 - 0.0
23/05:00pm 16.7 15.3 12.2 75 2.5 WSW 11 15 6 8 1013.0 - 0.0
23/04:30pm 16.9 15.1 12.2 74 2.6 WSW 13 17 7 9 1013.2 - 0.0
23/04:00pm 16.9 15.4 11.8 72 2.8 WSW 11 15 6 8 1012.9 - 0.0
23/03:30pm 16.7 13.6 11.6 72 2.8 WSW 19 20 10 11 1013.0 - 0.0
23/03:00pm 17.1 14.0 12.2 73 2.7 WSW 20 26 11 14 1012.8 1012.7 0.0
23/02:30pm 17.3 14.1 12.0 71 2.9 WSW 20 28 11 15 1012.8 - 0.0
23/02:00pm 17.5 14.4 12.3 71 2.9 WSW 20 24 11 13 1012.6 - 0.0
23/01:30pm 17.5 13.9 11.9 69 3.1 WSW 22 28 12 15 1012.1 - 0.0
23/01:00pm 17.6 14.5 12.2 70 3.0 WSW 20 28 11 15 1012.1 - 0.0
23/12:30pm 17.3 14.4 12.4 73 2.7 WSW 19 24 10 13 1012.4 - 0.0
23/12:00pm 17.2 14.3 12.9 76 2.4 WSW 20 24 11 13 1012.7 1012.7 0.0
23/11:30am 16.7 13.5 12.0 74 2.6 WSW 20 24 11 13 1012.8 - 0.0
23/11:00am 17.1 14.4 11.6 70 3.0 WSW 17 22 9 12 1012.8 - 0.0
23/10:30am 17.1 14.8 11.6 70 3.0 W 15 22 8 12 1013.0 - 0.0
23/10:00am 16.7 14.2 11.1 69 3.0 W 15 20 8 11 1013.1 - 0.0
23/09:30am 16.9 14.8 11.0 68 3.2 W 13 17 7 9 1013.3 - 0.0
23/09:00am 16.1 14.3 10.7 70 2.9 WNW 11 19 6 10 1013.1 1013.0 0.0
23/08:30am 15.7 13.9 11.0 73 2.5 WNW 11 17 6 9 1012.9 - 0.0
23/08:00am 15.3 13.7 11.4 77 2.1 NNW 11 15 6 8 1012.6 - 0.0
23/07:30am 14.3 12.6 11.3 82 1.6 NNW 11 17 6 9 1012.4 - 0.0
23/07:00am 13.3 12.0 11.2 87 1.1 NNW 9 13 5 7 1012.0 - 0.0
23/06:30am 12.3 10.1 10.8 90 0.8 NNW 13 15 7 8 1011.5 - 0.0
23/06:00am 12.4 10.2 10.7 89 0.9 NNW 13 17 7 9 1010.9 1010.9 0.0
23/05:30am 13.5 11.9 11.4 87 1.1 NW 11 15 6 8 1010.8 - 0.0
23/05:00am 14.2 12.2 11.6 84 1.4 W 13 20 7 11 1010.5 - 0.0
23/04:30am 14.3 11.6 11.7 84 1.4 WNW 17 22 9 12 1010.3 - 0.0
23/04:00am 14.5 11.3 11.9 84 1.4 W 20 26 11 14 1010.1 - 0.0
23/03:30am 14.5 10.9 11.9 84 1.4 W 22 28 12 15 1010.0 - 0.0
23/03:00am 14.6 10.9 12.6 88 1.1 W 24 33 13 18 1010.0 1010.0 0.0
23/02:30am 14.6 11.7 12.8 89 1.0 W 20 28 11 15 1010.1 - 0.0
23/02:00am 14.5 12.2 12.9 90 0.9 WNW 17 26 9 14 1010.0 - 0.0
23/01:30am 14.9 12.3 13.3 90 0.9 W 19 28 10 15 1010.1 - 0.0
23/01:00am 15.2 12.1 13.4 89 1.0 W 22 30 12 16 1010.1 - 0.0
23/12:30am 15.4 12.3 13.4 88 1.1 W 22 32 12 17 1010.0 - 0.0
23/12:00am 15.7 13.2 13.6 87 1.2 W 19 26 10 14 1009.7 1009.7 0.0
 
Date/Time
EDT
Temp
°C
App
Temp
°C
Dew
Point
Rel
Hum
%
Delta-T
°C
Wind Press
QNH
hPa
Press
MSL
hPa
Rain
since 9 am
mm
Dir
 
Spd
km/h
Gust
km/h
Spd
kts
Gust
kts
22/11:30pm 15.7 13.1 13.2 85 1.4 W 19 28 10 15 1009.4 - 0.0
22/11:00pm 16.0 12.8 13.0 82 1.7 W 22 28 12 15 1009.4 - 0.0
22/10:30pm 16.1 13.3 12.7 80 1.9 WNW 19 28 10 15 1009.2 - 0.0
22/10:00pm 16.4 13.2 11.8 74 2.5 WNW 20 28 11 15 1008.8 - 0.0
22/09:30pm 16.6 13.5 11.7 73 2.7 WNW 19 24 10 13 1008.3 - 0.0
22/09:00pm 16.8 13.6 11.3 70 3.0 WNW 19 24 10 13 1007.9 1007.9 0.0
22/08:30pm 17.1 13.7 11.2 68 3.2 WNW 20 28 11 15 1007.7 - 0.0
22/08:00pm 17.6 13.8 11.2 66 3.5 WNW 22 30 12 16 1007.3 - 0.0
22/07:30pm 18.2 14.6 11.7 66 3.6 W 22 33 12 18 1006.9 - 0.0
22/07:00pm 19.2 15.4 11.2 60 4.4 W 22 32 12 17 1006.2 - 0.0
22/06:30pm 20.6 17.3 11.0 54 5.3 WNW 19 26 10 14 1005.6 - 0.0
22/06:00pm 21.6 18.8 11.2 51 5.8 WNW 17 28 9 15 1005.6 1005.6 0.0
22/05:30pm 21.0 16.9 11.5 54 5.3 WNW 24 33 13 18 1005.5 - 0.0
22/05:00pm 22.3 18.3 11.7 51 6.0 W 24 43 13 23 1004.3 - 0.0
22/04:46pm 23.8 19.6 11.0 44 7.2 W 24 32 13 17 1004.0 - 0.0
22/04:44pm 23.8 19.6 11.0 44 7.2 W 24 39 13 21 1004.0 - 0.0
22/04:30pm 28.8 23.0 6.2 24 12.0 NW 26 43 14 23 1003.8 - 0.0
22/04:00pm 30.2 24.1 6.7 23 12.6 NW 28 46 15 25 1003.8 - 0.0
22/03:33pm 30.4 24.0 5.1 20 13.3 NNW 28 46 15 25 1004.1 - 0.0
22/03:30pm 30.3 23.2 5.3 20 13.1 NNW 32 46 17 25 1004.1 - 0.0
22/03:20pm 30.0 23.5 4.7 20 13.1 NW 28 46 15 25 1004.2 - 0.0
22/03:00pm 28.5 23.0 6.0 24 11.9 NNW 24 46 13 25 1004.7 1004.6 0.0
22/02:30pm 29.2 25.2 8.9 28 11.3 N 20 33 11 18 1005.1 - 0.0
22/02:00pm 27.6 23.6 9.0 31 10.3 N 20 35 11 19 1005.5 - 0.0
22/01:30pm 27.3 21.6 8.5 30 10.3 N 28 43 15 23 1005.8 - 0.0
22/01:00pm 25.7 21.8 9.4 35 9.0 N 20 33 11 18 1006.4 - 0.0
22/12:30pm 26.0 22.2 9.1 34 9.3 NNW 19 28 10 15 1006.4 - 0.0
22/12:00pm 24.8 19.8 8.0 34 9.0 NNW 24 39 13 21 1007.0 1007.0 0.0
22/11:30am 23.4 16.6 6.9 34 8.6 N 32 50 17 27 1007.4 - 0.0
22/11:18am 22.1 15.3 6.8 37 7.9 N 32 50 17 27 1007.5 - 0.0
22/11:00am 22.0 17.9 7.9 40 7.4 N 19 33 10 18 1007.9 - 0.0
22/10:30am 19.1 17.4 12.3 64 3.8 E 13 26 7 14 1007.7 - 0.0
22/10:00am 21.3 17.2 7.9 42 7.0 NNE 19 28 10 15 1007.8 - 0.0
22/09:30am 22.1 17.9 8.1 40 7.4 N 20 30 11 16 1007.7 - 0.0
22/09:00am 19.1 17.2 11.9 63 4.0 NE 13 20 7 11 1007.9 1007.9 0.2
22/08:30am 17.1 14.0 10.2 64 3.7 NNE 17 24 9 13 1008.2 - 0.2
22/08:00am 14.9 11.8 10.3 74 2.4 N 17 22 9 12 1009.0 - 0.2
22/07:30am 14.8 11.2 10.4 75 2.3 N 20 28 11 15 1009.3 - 0.2
22/07:00am 13.4 11.2 10.7 84 1.4 NW 13 20 7 11 1009.7 - 0.0
22/06:30am 13.3 11.0 10.4 82 1.5 N 13 17 7 9 1010.0 - 0.0
22/06:00am 14.1 13.3 10.9 81 1.7 S 6 9 3 5 1009.9 1009.9 0.0
22/05:30am 13.9 11.4 10.9 82 1.6 WNW 15 19 8 10 1010.4 - 0.0
22/05:00am 13.6 11.1 9.7 77 2.0 WNW 13 17 7 9 1010.5 - 0.0
22/04:30am 12.5 12.3 9.1 80 1.7 CALM 0 0 0 0 1009.9 - 0.0
22/04:00am 12.2 12.1 9.4 83 1.4 CALM 0 6 0 3 1010.0 - 0.0
22/03:30am 12.3 11.4 9.1 81 1.6 ENE 4 7 2 4 1009.3 - 0.0
22/03:00am 11.8 10.8 9.0 83 1.4 E 4 9 2 5 1009.4 1009.4 0.0
22/02:30am 11.3 9.0 9.1 86 1.1 NE 11 15 6 8 1009.5 - 0.0
22/02:00am 11.4 9.2 9.2 86 1.1 ENE 11 15 6 8 1009.7 - 0.0
22/01:30am 11.8 9.2 9.4 85 1.2 NE 13 17 7 9 1010.1 - 0.0
22/01:00am 12.0 9.0 9.4 84 1.3 NNE 15 20 8 11 1010.9 - 0.0
22/12:30am 12.1 8.6 8.9 81 1.6 NNE 17 20 9 11 1011.8 - 0.0
22/12:00am 11.6 8.1 8.6 82 1.5 NNE 17 19 9 10 1011.7 1011.9 0.0
 
Date/Time
EDT
Temp
°C
App
Temp
°C
Dew
Point
Rel
Hum
%
Delta-T
°C
Wind Press
QNH
hPa
Press
MSL
hPa
Rain
since 9 am
mm
Dir
 
Spd
km/h
Gust
km/h
Spd
kts
Gust
kts
21/11:30pm 11.4 8.6 8.6 83 1.4 NNE 13 17 7 9 1012.7 - 0.0
21/11:00pm 10.9 9.2 8.3 84 1.3 NNE 7 9 4 5 1012.9 - 0.0
21/10:30pm 11.6 8.4 8.6 82 1.5 N 15 17 8 9 1012.9 - 0.0
21/10:00pm 11.4 8.3 7.3 76 2.0 NNE 13 17 7 9 1012.7 - 0.0
21/09:30pm 10.9 8.7 8.0 82 1.4 NNE 9 11 5 6 1012.9 - 0.0
21/09:00pm 11.5 11.1 8.3 81 1.6 CALM 0 0 0 0 1012.4 1012.4 0.0
21/08:30pm 13.6 12.1 8.6 72 2.5 W 6 7 3 4 1012.1 - 0.0
21/08:00pm 14.6 12.9 8.5 67 3.1 WSW 7 9 4 5 1011.8 - 0.0
21/07:30pm 15.5 14.7 8.2 62 3.7 S 2 6 1 3 1011.6 - 0.0
21/07:00pm 15.4 14.1 7.8 60 3.8 SW 4 9 2 5 1011.3 - 0.0
21/06:30pm 15.6 12.5 8.8 64 3.5 WSW 15 19 8 10 1011.5 - 0.0
21/06:00pm 15.6 12.5 8.8 64 3.5 W 15 20 8 11 1011.5 1011.5 0.0
21/05:30pm 16.3 13.1 8.5 60 4.0 W 15 20 8 11 1011.4 - 0.0
21/05:00pm 16.2 11.8 9.1 63 3.7 W 22 30 12 16 1011.3 - 0.0
21/04:30pm 16.3 12.3 8.9 61 3.8 W 20 28 11 15 1011.3 - 0.0
21/04:00pm 16.5 12.7 9.0 61 3.9 W 19 26 10 14 1011.4 - 0.0
21/03:30pm 16.4 12.3 8.6 60 4.0 W 20 28 11 15 1011.4 - 0.0
21/03:00pm 16.5 12.1 9.0 61 3.9 W 22 30 12 16 1011.6 1011.6 0.0
21/02:30pm 16.2 11.2 7.9 58 4.2 W 24 32 13 17 1011.8 - 0.0
21/02:00pm 16.0 11.0 7.9 58 4.1 W 24 33 13 18 1011.9 - 0.0
21/01:30pm 15.7 9.8 7.3 57 4.2 W 28 39 15 21 1012.1 - 0.0
21/01:00pm 15.6 9.3 7.4 58 4.1 W 30 37 16 20 1012.2 - 0.0
21/12:30pm 15.7 10.0 8.4 62 3.7 W 28 37 15 20 1012.0 - 0.0
21/12:00pm 15.3 9.5 7.9 61 3.7 W 28 39 15 21 1011.9 1011.9 0.0
21/11:30am 15.5 10.5 8.2 62 3.7 W 24 37 13 20 1011.8 - 0.0
21/11:00am 14.8 8.7 8.3 65 3.3 W 30 39 16 21 1011.6 - 0.0
21/10:30am 14.5 9.1 8.1 65 3.2 W 26 33 14 18 1011.2 - 0.0
21/10:00am 14.6 8.7 8.9 68 2.9 W 30 43 16 23 1011.1 - 0.0
21/09:30am 13.5 7.6 9.2 75 2.2 W 30 43 16 23 1010.9 - 0.0
21/09:00am 13.6 9.9 10.1 79 1.8 W 20 33 11 18 1010.4 1010.4 12.8
21/08:30am 12.7 7.9 10.2 85 1.3 SW 26 37 14 20 1009.7 - 12.8
21/08:00am 13.4 8.1 9.9 79 1.8 W 28 37 15 20 1010.0 - 12.8
21/07:30am 13.2 8.7 10.1 81 1.6 WSW 24 35 13 19 1009.7 - 12.8
21/07:00am 13.3 8.8 10.2 81 1.6 W 24 37 13 20 1009.3 - 12.8
21/06:30am 13.3 8.0 9.8 79 1.8 WSW 28 39 15 21 1008.9 - 12.8
21/06:00am 13.0 8.6 10.3 84 1.4 SW 24 37 13 20 1007.9 1007.8 12.8
21/05:30am 13.1 7.6 10.6 85 1.3 WSW 30 43 16 23 1007.7 - 12.8
21/05:00am 13.1 7.7 10.8 86 1.2 WSW 30 44 16 24 1007.1 - 12.8
21/04:30am 13.0 7.3 11.3 89 0.9 WSW 32 43 17 23 1007.0 - 12.8
21/04:04am 13.4 7.4 12.1 92 0.7 WSW 35 54 19 29 1006.6 - 12.8
21/04:02am 13.4 7.4 12.1 92 0.7 WSW 35 54 19 29 1006.6 - 12.8
21/04:00am 13.4 7.0 12.1 92 0.7 WSW 37 54 20 29 1006.5 - 12.8
21/03:30am 13.3 7.4 12.4 94 0.5 WSW 35 48 19 26 1006.2 - 12.8
21/03:00am 13.9 8.8 13.0 94 0.5 WSW 32 48 17 26 1006.0 1006.0 12.8
21/02:56am 13.9 7.8 13.0 94 0.5 WSW 37 46 20 25 1006.0 - 12.6
21/02:54am 13.9 7.8 13.0 94 0.5 WSW 37 48 20 26 1006.0 - 12.6
21/02:30am 14.4 10.8 13.0 91 0.8 W 24 32 13 17 1005.8 - 12.2
21/02:00am 14.4 9.6 13.0 91 0.8 W 30 41 16 22 1006.1 - 12.2
21/01:30am 14.6 9.8 13.0 90 0.9 W 30 39 16 21 1006.1 - 12.2
21/01:00am 14.4 9.2 12.8 90 0.9 W 32 43 17 23 1006.1 - 12.2
21/12:30am 14.6 9.9 13.2 91 0.8 W 30 41 16 22 1006.2 - 12.2
21/12:00am 14.9 11.5 13.8 93 0.6 W 24 39 13 21 1006.1 1006.1 12.2
 
Date/Time
EDT
Temp
°C
App
Temp
°C
Dew
Point
Rel
Hum
%
Delta-T
°C
Wind Press
QNH
hPa
Press
MSL
hPa
Rain
since 9 am
mm
Dir
 
Spd
km/h
Gust
km/h
Spd
kts
Gust
kts
20/11:30pm 15.1 11.4 14.0 93 0.6 WNW 26 39 14 21 1005.9 - 12.2
20/11:00pm 15.2 11.2 14.1 93 0.6 WNW 28 37 15 20 1005.8 - 12.2
20/10:30pm 15.3 12.2 14.4 94 0.5 WNW 24 37 13 20 1005.6 - 12.2
20/10:00pm 16.0 13.9 15.1 94 0.5 WNW 20 32 11 17 1005.4 - 12.2

Other Formats:

Comma delimited format used in spreadsheet applications
http://www.bom.gov.au/fwo/IDV60801/IDV60801.94842.axf

JavaScript Object Notation format (JSON) in row-major order
http://www.bom.gov.au/fwo/IDV60801/IDV60801.94842.json